AirNav   Bose Proflight and A20 aviation headeets
 
 295 users online  

1NC2 Atwell Airport
Mooresville, North Carolina, USA

GOING TO MOORESVILLE?


FAA INFORMATION EFFECTIVE 31 JANUARY 2019

Location

FAA Identifier: 1NC2
Lat/Long: 35-39-17.0000N / 080-47-22.0000W
35-39.283333N / 080-47.366667W
35.6547222 / -80.7894444
(estimated)
Elevation: 830 ft. / 253 m (estimated)
From city: 3 miles NE of MOORESVILLE, NC
Time zone: UTC -5 (UTC -4 during Daylight Saving Time)
Zip code: 28125

Airport Operations

Airport use: Private use. Permission required prior to landing
Activation date: 04/2005
Control tower: no
ARTCC: ATLANTA CENTER
FSS: RALEIGH FLIGHT SERVICE STATION
Attendance: UNATNDD
Segmented circle: no

Airport Communications

WX AWOS-3 at SVH (10 nm NW): 119.225 (704-873-1978)
WX AWOS-3 at RUQ (13 nm E): 118.175 (704-637-6197)
WX AWOS-3 at JQF (16 nm S): 133.675 (704-785-2145)

Nearby radio navigation aids

VOR radial/distance  VOR name  Freq  Var
BZMr126/25.4BARRETTS MOUNTAIN VOR/DME110.8006W
CLTr021/29.0CHARLOTTE VOR/DME115.0005W

 
NDB name  Hdg/Dist  Freq  Var  ID
STONIA039/33.126006WGHJ --. .... .---
ZEPHYR192/39.432608WZEF --.. . ..-.

Airport Services

Runway Information

Runway 18/36

Dimensions: 1700 x 60 ft. / 518 x 18 m
Surface: turf
RUNWAY 18  RUNWAY 36
Traffic pattern: leftleft
Obstructions: 40 ft. pline, 50 ft. from runway60 ft. trees, 350 ft. from runway

Airport Ownership and Management from official FAA records

Ownership: Privately-owned
Owner: SCOTT ATWELL
135 ATWELL FARM LANE
MOORESVILLE, NC 28115
Phone 704-400-0626
Manager: SCOTT ATWELL
135 ATWELL FARM LANE
MOORESVILLE, NC 28115
Phone 704-400-0626

Airport Operational Statistics

Aircraft based on the field: 2
Single engine airplanes: 2
    

Additional Remarks

FOR CD CTC CHARLOTTE APCH AT 704-359-0241.

Instrument Procedures

There are no published instrument procedures at 1NC2.

Some nearby airports with instrument procedures:

14A - Lake Norman Airpark (6 nm SW)
KSVH - Statesville Regional Airport (10 nm NW)
KRUQ - Mid-Carolina Regional Airport (13 nm E)
KJQF - Concord-Padgett Regional Airport (16 nm S)
KIPJ - Lincolnton-Lincoln County Regional Airport (21 nm SW)
 
Loc | Ops | Rwys | IFR | FBO | Links
Com | Nav | Svcs | Stats | Notes
Area around 1NC2 (Atwell Airport)
 
Road maps at: MapQuest Bing Google
 
Aerial photo
No photo
 
Sectional chart

 
Airport distance calculator
Flying to Atwell Airport? Find the distance to fly.

From to 1NC2

Sunrise and sunset
Times for 16-Feb-2019
 Local
(UTC-5)
 Zulu
(UTC)
Morning civil twilight06:4411:44
Sunrise07:1012:10
Sunset18:0523:05
Evening civil twilight18:3123:31

Current date and time
Zulu (UTC)  16-Feb-2019 08:36:42
Local (UTC-5)  16-Feb-2019 03:36:42
 
METAR
KSVH 
10nm NW 
160800Z AUTO 00000KT 5SM DZ OVC008 11/11 A2975 RMK AO2 T01140108
KRUQ 
13nm E 
160800Z AUTO 00000KT 10SM -RA OVC012 12/12 A2976 RMK AO2 T01220115
KJQF 
17nm S 
160355Z 24007KT 10SM OVC070 14/11 A2985
TAF
KCLT 
27nm S 
160736Z 1608/1712 17004KT 5SM SHRA BR OVC007 FM161000 13004KT 2SM SHRA BR OVC003 FM161400 04010KT 4SM -SHRA BR OVC008 FM161900 03011KT P6SM OVC010 FM170700 05006KT P6SM BKN026 PROB30 1711/1712 4SM -RADZ OVC007
KHKY 
29nm W 
160525Z 1606/1706 00000KT P6SM SHRA OVC040 FM160700 09003KT 5SM SHRA BR OVC011 FM160900 08004KT 5SM SHRA BR OVC007 TEMPO 1609/1613 2SM SHRA BR OVC004 FM161500 05009KT P6SM -SHRA OVC010 PROB30 1616/1618 4SM -SHRA OVC008 FM162300 08005KT P6SM BKN014
NOTAMs
Click for the latest NOTAMs
NOTAMs are issued by the DoD/FAA and will open in a separate window not controlled by AirNav.

 

 
 

Would you like to see your business listed on this page?

 If your business provides an interesting product or service to pilots, flight crews, aircraft, or users of the Atwell Airport, you should consider listing it here.  To start the listing process, click on the button below
 
Add a business
 

Other Pages about Atwell Airport

Update a link
 
Copyright © AirNav, LLC. All rights reserved. Privacy Policy  Contact